Time;durP1;ratioP1;P1;durP2;ratioP2;P2;SDS_P1;SDS_P2;PMS_P1;PMS_P2;Temp;Humidity;BMP_temperature;BMP_pressure;BME280_temperature;BME280_humidity;BME280_pressure;Samples;Min_cycle;Max_cycle;Signal;HPM_P1;HPM_P2
2021/08/09 00:00:53;;;;;;;;;;;26.30;43.80;;;;;;5024370;28;85483;-47
2021/08/09 00:03:18;;;;;;;;;;;26.30;43.40;;;;;;5025088;28;83514;-47
2021/08/09 00:05:46;;;;;;;;;;;26.20;43.40;;;;;;5024858;28;82886;-46
2021/08/09 00:08:12;;;;;;;;;;;26.20;43.60;;;;;;5023177;28;84506;-46
2021/08/09 00:10:37;;;;;;;;;;;26.20;43.70;;;;;;5023518;28;82160;-46
2021/08/09 00:13:03;;;;;;;;;;;26.20;43.60;;;;;;5024704;28;82437;-47
2021/08/09 00:15:29;;;;;;;;;;;26.20;43.90;;;;;;5025230;28;82688;-46
2021/08/09 00:17:55;;;;;;;;;;;26.20;43.70;;;;;;5024076;28;82193;-46
2021/08/09 00:20:20;;;;;;;;;;;26.20;43.70;;;;;;5021165;28;82451;-46
2021/08/09 00:22:46;;;;;;;;;;;26.10;43.50;;;;;;5020349;28;84460;-47
2021/08/09 00:25:11;;;;;;;;;;;26.10;43.60;;;;;;5020556;28;82099;-47
2021/08/09 00:27:37;;;;;;;;;;;26.10;44.40;;;;;;5023948;28;83696;-50
2021/08/09 00:30:04;;;;;;;;;;;26.10;43.70;;;;;;5023811;28;83687;-46
2021/08/09 00:32:29;;;;;;;;;;;26.10;43.80;;;;;;5024961;28;82098;-47
2021/08/09 00:34:55;;;;;;;;;;;26.10;43.70;;;;;;5023714;28;85023;-46
2021/08/09 00:37:20;;;;;;;;;;;26.10;43.70;;;;;;5020127;28;82802;-46
2021/08/09 00:39:46;;;;;;;;;;;26.10;43.90;;;;;;5020946;28;81839;-46
2021/08/09 00:42:11;;;;;;;;;;;26.00;43.80;;;;;;5020922;28;82543;-46
2021/08/09 00:44:37;;;;;;;;;;;26.00;43.60;;;;;;5021086;28;82207;-47
2021/08/09 00:47:03;;;;;;;;;;;26.00;43.90;;;;;;5024110;28;83050;-46
2021/08/09 00:49:28;;;;;;;;;;;26.00;44.00;;;;;;5023162;28;82222;-47
2021/08/09 00:51:55;;;;;;;;;;;26.00;43.70;;;;;;5024248;28;82123;-48
2021/08/09 00:54:21;;;;;;;;;;;25.90;43.70;;;;;;5023692;28;84652;-47
2021/08/09 00:56:47;;;;;;;;;;;25.90;43.90;;;;;;5022346;28;82113;-47
2021/08/09 00:59:12;;;;;;;;;;;25.90;43.60;;;;;;5023551;28;82174;-46
2021/08/09 01:01:38;;;;;;;;;;;25.90;43.70;;;;;;5024691;28;83029;-46
2021/08/09 01:04:05;;;;;;;;;;;25.90;43.80;;;;;;5022116;28;82253;-46
2021/08/09 01:06:30;;;;;;;;;;;25.90;43.80;;;;;;5023549;28;83719;-47
2021/08/09 01:08:56;;;;;;;;;;;25.90;43.70;;;;;;5027207;28;83416;-47
2021/08/09 01:11:27;;;;;;;;;;;25.90;43.80;;;;;;5023547;28;83013;-46
2021/08/09 01:14:01;;;;;;;;;;;25.80;44.50;;;;;;5024112;28;84468;-53
2021/08/09 01:16:31;;;;;;;;;;;25.80;44.00;;;;;;5020503;28;82242;-46
2021/08/09 01:19:01;;;;;;;;;;;25.80;44.00;;;;;;5022179;28;82750;-46
2021/08/09 01:21:30;;;;;;;;;;;25.80;43.70;;;;;;5023674;28;84546;-48
2021/08/09 01:24:05;;;;;;;;;;;25.70;43.70;;;;;;5019447;28;82089;-47
2021/08/09 01:26:39;;;;;;;;;;;25.70;43.90;;;;;;5020014;28;82173;-46
2021/08/09 01:29:09;;;;;;;;;;;25.70;44.00;;;;;;5021904;28;83741;-46
2021/08/09 01:31:40;;;;;;;;;;;25.70;44.10;;;;;;5025895;28;82105;-47
2021/08/09 01:34:07;;;;;;;;;;;25.70;44.00;;;;;;5023239;28;84317;-47
2021/08/09 01:36:33;;;;;;;;;;;25.70;44.00;;;;;;5021442;28;83058;-46
2021/08/09 01:39:00;;;;;;;;;;;25.70;43.90;;;;;;5020827;28;84668;-46
2021/08/09 01:41:26;;;;;;;;;;;25.60;44.00;;;;;;5018928;28;83900;-46
2021/08/09 01:43:51;;;;;;;;;;;25.70;44.10;;;;;;5023053;28;83673;-50
2021/08/09 01:46:18;;;;;;;;;;;25.60;44.00;;;;;;5023730;28;83061;-47
2021/08/09 01:48:46;;;;;;;;;;;25.60;44.00;;;;;;5021793;28;84501;-46
2021/08/09 01:51:12;;;;;;;;;;;25.60;44.10;;;;;;5023815;28;83746;-47
2021/08/09 01:53:37;;;;;;;;;;;25.50;43.80;;;;;;5024549;28;82327;-46
2021/08/09 01:56:03;;;;;;;;;;;25.60;44.00;;;;;;5020466;28;83958;-48
2021/08/09 01:58:29;;;;;;;;;;;25.50;44.10;;;;;;5021179;28;82481;-46
2021/08/09 02:00:54;;;;;;;;;;;25.50;44.00;;;;;;5020965;28;83809;-48
2021/08/09 02:03:20;;;;;;;;;;;25.50;43.90;;;;;;5021300;28;82088;-46
2021/08/09 02:05:45;;;;;;;;;;;25.50;44.10;;;;;;5021069;28;82268;-47
2021/08/09 02:08:12;;;;;;;;;;;25.50;44.10;;;;;;5021600;28;84486;-47
2021/08/09 02:10:38;;;;;;;;;;;25.40;43.90;;;;;;5020135;28;83109;-47
2021/08/09 02:13:07;;;;;;;;;;;25.40;44.00;;;;;;5020457;28;82394;-46
2021/08/09 02:15:40;;;;;;;;;;;25.40;44.10;;;;;;5022657;28;84098;-46
2021/08/09 02:18:08;;;;;;;;;;;25.40;44.00;;;;;;5021663;28;82494;-48
2021/08/09 02:20:37;;;;;;;;;;;25.40;44.10;;;;;;5020858;28;84591;-47
2021/08/09 02:23:04;;;;;;;;;;;25.40;44.10;;;;;;5021550;28;83617;-46
2021/08/09 02:25:33;;;;;;;;;;;25.40;44.00;;;;;;5021859;28;83053;-48
2021/08/09 02:28:07;;;;;;;;;;;25.30;43.90;;;;;;5020152;28;83193;-46
2021/08/09 02:30:35;;;;;;;;;;;25.30;44.20;;;;;;5019475;28;82609;-46
2021/08/09 02:33:02;;;;;;;;;;;25.30;44.00;;;;;;5023336;28;82053;-49
2021/08/09 02:35:28;;;;;;;;;;;25.30;44.30;;;;;;5021534;28;84377;-46
2021/08/09 02:37:54;;;;;;;;;;;25.30;44.20;;;;;;5023244;28;82681;-46
2021/08/09 02:40:20;;;;;;;;;;;25.20;43.90;;;;;;5020974;28;83164;-47
2021/08/09 02:42:46;;;;;;;;;;;25.20;44.30;;;;;;5022323;28;82276;-46
2021/08/09 02:45:12;;;;;;;;;;;25.20;44.10;;;;;;5019651;28;82095;-47
2021/08/09 02:47:38;;;;;;;;;;;25.20;44.10;;;;;;5022237;28;82628;-50
2021/08/09 02:50:09;;;;;;;;;;;25.20;44.30;;;;;;5020139;28;83034;-46
2021/08/09 02:52:37;;;;;;;;;;;25.10;44.00;;;;;;5020958;28;83602;-46
2021/08/09 02:55:02;;;;;;;;;;;25.10;44.20;;;;;;5019816;28;83477;-49
2021/08/09 02:57:28;;;;;;;;;;;25.10;44.10;;;;;;5021891;28;82078;-47
2021/08/09 02:59:57;;;;;;;;;;;25.10;44.30;;;;;;5020706;28;83974;-48
2021/08/09 03:02:23;;;;;;;;;;;25.10;44.30;;;;;;5022596;28;82072;-47
2021/08/09 03:04:49;;;;;;;;;;;25.10;44.60;;;;;;5022714;28;82106;-46
2021/08/09 03:07:16;;;;;;;;;;;25.00;44.20;;;;;;5023379;28;81985;-46
2021/08/09 03:09:41;;;;;;;;;;;25.00;44.30;;;;;;5023454;28;82063;-47
2021/08/09 03:12:07;;;;;;;;;;;25.00;44.40;;;;;;5022712;28;82084;-46
2021/08/09 03:14:32;;;;;;;;;;;25.00;44.30;;;;;;5021965;28;84359;-46
2021/08/09 03:17:02;;;;;;;;;;;25.00;44.40;;;;;;5022311;28;82182;-46
2021/08/09 03:19:28;;;;;;;;;;;25.00;44.30;;;;;;5025779;28;83889;-47
2021/08/09 03:21:56;;;;;;;;;;;25.00;45.00;;;;;;5022707;28;82180;-46
2021/08/09 03:24:22;;;;;;;;;;;24.90;44.40;;;;;;5023057;28;83080;-46
2021/08/09 03:26:48;;;;;;;;;;;24.90;44.30;;;;;;5023503;28;83196;-47
2021/08/09 03:29:13;;;;;;;;;;;24.90;44.40;;;;;;5025039;28;82098;-46
2021/08/09 03:31:39;;;;;;;;;;;24.90;44.40;;;;;;5025204;28;82566;-46
2021/08/09 03:34:05;;;;;;;;;;;24.90;44.50;;;;;;5023783;28;82861;-46
2021/08/09 03:36:31;;;;;;;;;;;24.90;44.40;;;;;;5024424;28;82094;-47
2021/08/09 03:38:57;;;;;;;;;;;24.80;44.50;;;;;;5022054;28;83983;-46
2021/08/09 03:41:22;;;;;;;;;;;24.80;44.50;;;;;;5027076;28;83397;-47
2021/08/09 03:43:48;;;;;;;;;;;24.80;44.40;;;;;;5023058;28;82662;-46
2021/08/09 03:46:14;;;;;;;;;;;24.80;44.60;;;;;;5023834;28;83173;-46
2021/08/09 03:48:40;;;;;;;;;;;24.80;44.40;;;;;;5024498;28;82155;-46
2021/08/09 03:51:06;;;;;;;;;;;24.80;44.60;;;;;;5022284;28;82826;-46
2021/08/09 03:53:31;;;;;;;;;;;24.80;44.50;;;;;;5024197;28;82144;-48
2021/08/09 03:55:57;;;;;;;;;;;24.80;44.60;;;;;;5023707;28;82676;-46
2021/08/09 03:58:23;;;;;;;;;;;24.80;44.60;;;;;;5023637;28;82711;-48
2021/08/09 04:00:48;;;;;;;;;;;24.70;44.60;;;;;;5023070;28;84346;-47
2021/08/09 04:03:14;;;;;;;;;;;24.70;44.70;;;;;;5023717;28;83076;-47
2021/08/09 04:05:39;;;;;;;;;;;24.70;44.60;;;;;;5024552;28;82734;-46
2021/08/09 04:08:05;;;;;;;;;;;24.70;44.60;;;;;;5022334;28;83263;-47
2021/08/09 04:10:30;;;;;;;;;;;24.60;44.70;;;;;;5024421;28;82732;-48
2021/08/09 04:12:56;;;;;;;;;;;24.60;44.70;;;;;;5022417;28;82566;-46
2021/08/09 04:15:21;;;;;;;;;;;24.60;44.70;;;;;;5023665;28;82091;-46
2021/08/09 04:17:47;;;;;;;;;;;24.60;44.80;;;;;;5023026;28;82396;-46
2021/08/09 04:20:13;;;;;;;;;;;24.60;44.70;;;;;;5022060;28;81918;-47
2021/08/09 04:22:38;;;;;;;;;;;24.60;44.80;;;;;;5020784;28;82144;-46
2021/08/09 04:25:04;;;;;;;;;;;24.60;45.40;;;;;;5023682;28;82070;-46
2021/08/09 04:27:30;;;;;;;;;;;24.60;44.80;;;;;;5019710;28;83030;-47
2021/08/09 04:29:55;;;;;;;;;;;24.50;44.70;;;;;;5022297;28;84903;-46
2021/08/09 04:32:21;;;;;;;;;;;24.50;44.60;;;;;;5024189;28;83512;-46
2021/08/09 04:34:47;;;;;;;;;;;24.50;44.80;;;;;;5022476;28;83558;-47
2021/08/09 04:37:13;;;;;;;;;;;24.50;44.80;;;;;;5022075;28;82491;-47
2021/08/09 04:39:39;;;;;;;;;;;24.50;44.90;;;;;;5023050;28;84448;-46
2021/08/09 04:42:05;;;;;;;;;;;24.50;44.90;;;;;;5022773;28;82145;-46
2021/08/09 04:44:30;;;;;;;;;;;24.50;45.00;;;;;;5025395;28;82241;-46
2021/08/09 04:46:57;;;;;;;;;;;24.40;44.90;;;;;;5022053;28;82078;-48
2021/08/09 04:49:23;;;;;;;;;;;24.40;44.90;;;;;;5020552;28;84206;-46
2021/08/09 04:51:49;;;;;;;;;;;24.40;44.90;;;;;;5020569;28;84501;-47
2021/08/09 04:54:14;;;;;;;;;;;24.40;45.00;;;;;;5022345;28;82919;-55
2021/08/09 04:56:40;;;;;;;;;;;24.40;45.10;;;;;;5020931;28;84078;-50
2021/08/09 04:59:05;;;;;;;;;;;24.40;45.00;;;;;;5022538;28;83802;-46
2021/08/09 05:01:31;;;;;;;;;;;24.40;45.00;;;;;;5021073;28;83738;-46
2021/08/09 05:03:57;;;;;;;;;;;24.30;45.10;;;;;;5023847;28;83646;-46
2021/08/09 05:06:23;;;;;;;;;;;24.30;45.10;;;;;;5023918;28;84136;-46
2021/08/09 05:08:49;;;;;;;;;;;24.40;45.10;;;;;;5021741;28;83726;-47
2021/08/09 05:11:15;;;;;;;;;;;24.30;45.00;;;;;;5023051;28;82084;-46
2021/08/09 05:13:40;;;;;;;;;;;24.30;45.20;;;;;;5020798;28;82092;-46
2021/08/09 05:16:06;;;;;;;;;;;24.30;45.30;;;;;;5023092;28;83347;-47
2021/08/09 05:18:31;;;;;;;;;;;24.30;45.20;;;;;;5021113;28;82443;-46
2021/08/09 05:20:57;;;;;;;;;;;24.30;45.30;;;;;;5023030;28;82216;-47
2021/08/09 05:23:23;;;;;;;;;;;24.30;45.30;;;;;;5021799;28;82101;-46
2021/08/09 05:25:48;;;;;;;;;;;24.30;45.30;;;;;;5019136;28;84414;-46
2021/08/09 05:28:14;;;;;;;;;;;24.30;45.40;;;;;;5023063;28;83444;-46
2021/08/09 05:30:40;;;;;;;;;;;24.30;45.40;;;;;;5021007;28;83424;-46
2021/08/09 05:33:06;;;;;;;;;;;24.30;45.30;;;;;;5021633;28;81360;-46
2021/08/09 05:35:32;;;;;;;;;;;24.20;45.40;;;;;;5022140;28;82865;-47
2021/08/09 05:37:57;;;;;;;;;;;24.20;45.40;;;;;;5021671;28;83692;-46
2021/08/09 05:40:23;;;;;;;;;;;24.20;45.50;;;;;;5019600;28;83090;-46
2021/08/09 05:42:49;;;;;;;;;;;24.30;45.60;;;;;;5019526;28;85130;-47
2021/08/09 05:45:16;;;;;;;;;;;24.20;45.50;;;;;;5020867;28;84926;-47
2021/08/09 05:47:41;;;;;;;;;;;24.20;45.60;;;;;;5022354;28;82114;-46
2021/08/09 05:50:07;;;;;;;;;;;24.20;45.60;;;;;;5024401;28;83866;-46
2021/08/09 05:52:32;;;;;;;;;;;24.20;45.60;;;;;;5020681;28;82110;-46
2021/08/09 05:55:02;;;;;;;;;;;24.20;45.60;;;;;;5022780;28;82815;-46
2021/08/09 05:57:28;;;;;;;;;;;24.20;45.60;;;;;;5022099;28;82307;-47
2021/08/09 05:59:54;;;;;;;;;;;24.20;45.70;;;;;;5023364;28;82247;-47
2021/08/09 06:02:19;;;;;;;;;;;24.20;45.70;;;;;;5022219;28;83521;-46
2021/08/09 06:04:45;;;;;;;;;;;24.20;45.80;;;;;;5020579;28;84233;-46
2021/08/09 06:07:12;;;;;;;;;;;24.20;45.80;;;;;;5021017;28;82111;-47
2021/08/09 06:09:37;;;;;;;;;;;24.20;45.90;;;;;;5022355;28;82440;-47
2021/08/09 06:12:03;;;;;;;;;;;24.20;45.90;;;;;;5023503;28;84895;-46
2021/08/09 06:14:28;;;;;;;;;;;24.20;45.90;;;;;;5021545;28;82081;-46
2021/08/09 06:16:54;;;;;;;;;;;24.20;45.90;;;;;;5021403;28;83468;-46
2021/08/09 06:19:20;;;;;;;;;;;24.20;46.00;;;;;;5020989;28;82099;-47
2021/08/09 06:21:45;;;;;;;;;;;24.20;46.00;;;;;;5022458;28;82502;-47
2021/08/09 06:24:11;;;;;;;;;;;24.20;46.00;;;;;;5020265;28;83115;-47
2021/08/09 06:26:36;;;;;;;;;;;24.20;46.00;;;;;;5022244;28;83584;-47
2021/08/09 06:29:02;;;;;;;;;;;24.20;46.20;;;;;;5018868;28;83848;-46
2021/08/09 06:31:27;;;;;;;;;;;24.10;46.10;;;;;;5018993;28;83038;-46
2021/08/09 06:33:53;;;;;;;;;;;24.20;46.30;;;;;;5023364;28;82176;-46
2021/08/09 06:36:18;;;;;;;;;;;24.20;46.20;;;;;;5022512;28;84825;-46
2021/08/09 06:38:44;;;;;;;;;;;24.10;46.20;;;;;;5023526;28;82165;-46
2021/08/09 06:41:09;;;;;;;;;;;24.10;46.30;;;;;;5023745;28;82950;-46
2021/08/09 06:43:35;;;;;;;;;;;24.10;46.40;;;;;;5024390;28;82156;-46
2021/08/09 06:46:00;;;;;;;;;;;24.10;46.40;;;;;;5025308;28;82784;-46
2021/08/09 06:48:27;;;;;;;;;;;24.10;46.50;;;;;;5023966;28;82113;-46
2021/08/09 06:50:53;;;;;;;;;;;24.10;46.50;;;;;;5025904;28;83063;-46
2021/08/09 06:53:18;;;;;;;;;;;24.10;46.50;;;;;;5025993;28;83649;-47
2021/08/09 06:55:44;;;;;;;;;;;24.20;46.60;;;;;;5024922;28;82789;-47
2021/08/09 06:58:09;;;;;;;;;;;24.10;46.40;;;;;;5024306;28;82152;-46
2021/08/09 07:00:35;;;;;;;;;;;24.20;46.50;;;;;;5024300;28;82107;-46
2021/08/09 07:03:07;;;;;;;;;;;24.10;46.50;;;;;;5024362;28;82776;-46
2021/08/09 07:05:37;;;;;;;;;;;24.10;46.60;;;;;;5023077;28;82124;-47
2021/08/09 07:08:03;;;;;;;;;;;24.10;46.60;;;;;;5025032;28;82187;-47
2021/08/09 07:10:29;;;;;;;;;;;24.10;46.60;;;;;;5025814;28;82829;-46
2021/08/09 07:12:55;;;;;;;;;;;24.10;46.60;;;;;;5025954;28;82083;-47
2021/08/09 07:15:20;;;;;;;;;;;24.10;46.70;;;;;;5025916;28;83766;-47
2021/08/09 07:17:46;;;;;;;;;;;24.10;46.70;;;;;;5023819;28;83035;-46
2021/08/09 07:20:13;;;;;;;;;;;24.10;46.80;;;;;;5024813;28;83490;-49
2021/08/09 07:22:40;;;;;;;;;;;24.10;46.70;;;;;;5023444;28;84837;-47
2021/08/09 07:25:06;;;;;;;;;;;24.10;46.70;;;;;;5022648;28;82114;-47
2021/08/09 07:27:31;;;;;;;;;;;24.10;46.70;;;;;;5025281;28;82331;-48
2021/08/09 07:29:57;;;;;;;;;;;24.20;46.80;;;;;;5022717;28;83503;-47
2021/08/09 07:32:23;;;;;;;;;;;24.10;46.80;;;;;;5024749;28;82083;-46
2021/08/09 07:34:48;;;;;;;;;;;24.20;46.90;;;;;;5023783;28;82117;-48
2021/08/09 07:37:14;;;;;;;;;;;24.20;46.90;;;;;;5026200;28;83547;-46
2021/08/09 07:39:39;;;;;;;;;;;24.10;46.80;;;;;;5023220;28;82755;-46
2021/08/09 07:42:05;;;;;;;;;;;24.20;47.00;;;;;;5024171;28;83966;-50
2021/08/09 07:44:30;;;;;;;;;;;24.20;47.00;;;;;;5022999;28;82672;-46
2021/08/09 07:46:56;;;;;;;;;;;24.20;47.00;;;;;;5024077;28;82140;-47
2021/08/09 07:49:21;;;;;;;;;;;24.20;47.00;;;;;;5023878;28;83033;-49
2021/08/09 07:51:47;;;;;;;;;;;24.20;47.10;;;;;;5025753;28;82233;-46
2021/08/09 07:54:12;;;;;;;;;;;24.20;47.00;;;;;;5022215;28;82879;-46
2021/08/09 07:56:38;;;;;;;;;;;24.20;47.00;;;;;;5023253;28;82151;-46
2021/08/09 07:59:03;;;;;;;;;;;24.20;47.00;;;;;;5027972;28;83003;-48
2021/08/09 08:01:29;;;;;;;;;;;24.20;46.90;;;;;;5025431;28;83940;-47
2021/08/09 08:03:54;;;;;;;;;;;24.20;46.90;;;;;;5022865;28;82279;-46
2021/08/09 08:06:20;;;;;;;;;;;24.20;47.00;;;;;;5021678;28;83055;-46
2021/08/09 08:08:45;;;;;;;;;;;24.20;47.00;;;;;;5024455;28;82635;-47
2021/08/09 08:11:11;;;;;;;;;;;24.20;47.00;;;;;;5025756;28;82210;-46
2021/08/09 08:13:37;;;;;;;;;;;24.20;46.90;;;;;;5022432;28;83863;-46
2021/08/09 08:16:02;;;;;;;;;;;24.20;46.90;;;;;;5023299;28;82711;-46
2021/08/09 08:18:28;;;;;;;;;;;24.20;46.90;;;;;;5022495;28;83658;-47
2021/08/09 08:20:53;;;;;;;;;;;24.20;46.80;;;;;;5026059;28;82166;-47
2021/08/09 08:23:19;;;;;;;;;;;24.20;46.80;;;;;;5026215;28;82991;-46
2021/08/09 08:25:44;;;;;;;;;;;24.30;46.80;;;;;;5024862;28;82104;-46
2021/08/09 08:28:10;;;;;;;;;;;24.30;46.80;;;;;;5023924;28;84574;-46
2021/08/09 08:30:35;;;;;;;;;;;24.20;46.70;;;;;;5022740;28;83041;-47
2021/08/09 08:33:01;;;;;;;;;;;24.30;46.80;;;;;;5023681;28;84114;-46
2021/08/09 08:35:27;;;;;;;;;;;24.20;46.70;;;;;;5023061;28;83209;-47
2021/08/09 08:37:53;;;;;;;;;;;24.30;46.70;;;;;;5023447;28;82235;-47
2021/08/09 08:40:19;;;;;;;;;;;24.30;46.70;;;;;;5020996;28;83998;-46
2021/08/09 08:42:46;;;;;;;;;;;24.30;46.70;;;;;;5023870;28;82526;-47
2021/08/09 08:45:15;;;;;;;;;;;24.30;46.80;;;;;;5022594;28;83794;-47
2021/08/09 08:47:41;;;;;;;;;;;24.30;46.70;;;;;;5020537;28;82084;-46
2021/08/09 08:50:09;;;;;;;;;;;24.30;46.60;;;;;;5020144;28;82082;-46
2021/08/09 08:52:35;;;;;;;;;;;24.30;46.80;;;;;;5022915;28;82780;-46
2021/08/09 08:55:00;;;;;;;;;;;24.40;47.80;;;;;;5022758;28;83849;-46
2021/08/09 08:57:26;;;;;;;;;;;24.40;47.10;;;;;;5022616;28;82139;-47
2021/08/09 08:59:51;;;;;;;;;;;24.40;47.00;;;;;;5021983;28;84008;-47
2021/08/09 09:02:31;;;;;;;;;;;24.40;47.00;;;;;;5024524;28;82737;-47
2021/08/09 09:05:10;;;;;;;;;;;24.40;47.00;;;;;;5022292;28;84078;-46
2021/08/09 09:07:37;;;;;;;;;;;24.40;47.10;;;;;;5023891;28;84188;-47
2021/08/09 09:10:12;;;;;;;;;;;24.50;47.20;;;;;;5022302;28;82093;-46
2021/08/09 09:12:38;;;;;;;;;;;24.50;47.00;;;;;;5024389;28;82907;-47
2021/08/09 09:15:05;;;;;;;;;;;24.50;47.20;;;;;;5021337;28;83616;-46
2021/08/09 09:17:31;;;;;;;;;;;24.50;47.20;;;;;;5022630;28;82158;-46
2021/08/09 09:19:56;;;;;;;;;;;24.50;47.10;;;;;;5021245;28;83098;-46
2021/08/09 09:22:22;;;;;;;;;;;24.50;47.30;;;;;;5021496;28;84305;-46
2021/08/09 09:24:49;;;;;;;;;;;24.50;47.10;;;;;;5023088;28;82092;-47
2021/08/09 09:27:29;;;;;;;;;;;24.60;47.20;;;;;;5024187;28;83330;-47
2021/08/09 09:29:55;;;;;;;;;;;24.50;46.80;;;;;;5023423;28;83526;-46
2021/08/09 09:32:22;;;;;;;;;;;24.60;47.30;;;;;;5023518;28;84168;-47
2021/08/09 09:34:50;;;;;;;;;;;24.60;47.40;;;;;;5021042;28;84099;-48
2021/08/09 09:37:35;;;;;;;;;;;24.60;47.20;;;;;;5019951;28;81447;-47
2021/08/09 09:40:07;;;;;;;;;;;24.60;47.10;;;;;;5019540;28;82865;-47
2021/08/09 09:42:37;;;;;;;;;;;24.60;47.20;;;;;;5023438;28;85644;-48
2021/08/09 09:45:21;;;;;;;;;;;24.60;47.10;;;;;;5021127;28;84770;-46
2021/08/09 09:48:02;;;;;;;;;;;24.70;48.10;;;;;;5022846;28;84974;-46
2021/08/09 09:50:28;;;;;;;;;;;24.70;47.30;;;;;;5018944;28;82115;-46
2021/08/09 09:52:55;;;;;;;;;;;24.70;47.30;;;;;;5019338;28;83839;-46
2021/08/09 09:55:20;;;;;;;;;;;24.70;47.40;;;;;;5021132;28;83055;-46
2021/08/09 09:57:47;;;;;;;;;;;24.80;47.30;;;;;;5024032;28;82174;-47
2021/08/09 10:00:13;;;;;;;;;;;24.80;47.40;;;;;;5022349;28;83043;-46
2021/08/09 10:02:44;;;;;;;;;;;24.80;47.40;;;;;;5024104;28;81420;-46
2021/08/09 10:05:09;;;;;;;;;;;24.80;47.30;;;;;;5023296;28;82090;-47
2021/08/09 10:07:36;;;;;;;;;;;24.80;47.40;;;;;;5022585;28;82453;-47
2021/08/09 10:10:02;;;;;;;;;;;24.80;47.50;;;;;;5023327;28;85805;-48
2021/08/09 10:12:29;;;;;;;;;;;24.80;47.40;;;;;;5023328;28;85027;-46
2021/08/09 10:14:55;;;;;;;;;;;24.90;47.60;;;;;;5027360;28;83129;-47
2021/08/09 10:17:21;;;;;;;;;;;24.90;47.40;;;;;;5026166;28;82086;-46
2021/08/09 10:19:49;;;;;;;;;;;24.90;47.40;;;;;;5025716;28;82103;-47
2021/08/09 10:22:18;;;;;;;;;;;24.90;47.60;;;;;;5022258;28;84624;-46
2021/08/09 10:24:44;;;;;;;;;;;24.90;47.50;;;;;;5023384;28;82147;-47
2021/08/09 10:27:10;;;;;;;;;;;25.00;47.50;;;;;;5023959;28;82009;-48
2021/08/09 10:30:11;;;;;;;;;;;25.00;47.60;;;;;;5022640;28;83269;-46
2021/08/09 10:33:07;;;;;;;;;;;25.10;47.30;;;;;;4983127;28;82125;-47
2021/08/09 10:35:38;;;;;;;;;;;25.10;47.50;;;;;;5025171;28;84507;-49
2021/08/09 10:38:10;;;;;;;;;;;25.10;47.40;;;;;;5026821;28;82842;-49
2021/08/09 10:40:35;;;;;;;;;;;25.10;47.40;;;;;;5025559;28;82901;-47
2021/08/09 10:43:01;;;;;;;;;;;25.10;47.50;;;;;;5024643;28;82974;-46
2021/08/09 10:45:48;;;;;;;;;;;25.10;47.60;;;;;;5024969;28;82143;-49
2021/08/09 10:48:14;;;;;;;;;;;25.20;47.20;;;;;;5022437;28;83861;-46
2021/08/09 10:50:42;;;;;;;;;;;25.20;47.40;;;;;;5022129;28;84740;-47
2021/08/09 10:53:27;;;;;;;;;;;25.30;47.30;;;;;;5025876;28;81387;-49
2021/08/09 10:55:53;;;;;;;;;;;25.20;47.30;;;;;;5028188;28;83507;-47
2021/08/09 10:58:38;;;;;;;;;;;25.30;47.20;;;;;;5025778;28;82072;-46
2021/08/09 11:01:03;;;;;;;;;;;25.30;47.40;;;;;;5023901;28;83916;-47
2021/08/09 11:03:29;;;;;;;;;;;25.30;47.30;;;;;;5025861;28;83042;-48
2021/08/09 11:05:54;;;;;;;;;;;25.30;47.10;;;;;;5026500;28;82207;-47
2021/08/09 11:08:20;;;;;;;;;;;25.30;47.20;;;;;;5026130;28;83075;-48
2021/08/09 11:10:58;;;;;;;;;;;25.40;46.70;;;;;;5025450;28;84465;-46
2021/08/09 11:13:27;;;;;;;;;;;25.40;46.90;;;;;;5021954;28;82154;-48
2021/08/09 11:15:56;;;;;;;;;;;25.40;46.50;;;;;;5025436;28;82635;-46
2021/08/09 11:18:22;;;;;;;;;;;25.50;47.00;;;;;;5024353;28;81411;-46
2021/08/09 11:20:48;;;;;;;;;;;25.50;47.00;;;;;;5022809;28;82081;-46
2021/08/09 11:23:15;;;;;;;;;;;25.50;46.90;;;;;;5021283;28;83324;-46
2021/08/09 11:25:48;;;;;;;;;;;25.50;46.70;;;;;;5024974;28;83036;-47
2021/08/09 11:28:17;;;;;;;;;;;25.50;46.90;;;;;;5021834;28;84592;-47
2021/08/09 11:30:51;;;;;;;;;;;25.50;46.90;;;;;;5023017;28;84402;-46
2021/08/09 11:33:20;;;;;;;;;;;25.50;46.80;;;;;;5023689;28;82117;-46
2021/08/09 11:35:47;;;;;;;;;;;25.50;46.70;;;;;;5025008;28;84310;-48
2021/08/09 11:38:12;;;;;;;;;;;25.60;46.80;;;;;;5027188;28;83311;-48
2021/08/09 11:40:38;;;;;;;;;;;25.60;46.70;;;;;;5024252;28;82795;-47
2021/08/09 11:43:04;;;;;;;;;;;25.70;46.90;;;;;;5023989;28;83826;-47
2021/08/09 11:45:30;;;;;;;;;;;25.70;46.70;;;;;;5022553;28;82090;-46
2021/08/09 11:47:55;;;;;;;;;;;25.70;46.60;;;;;;5021384;28;84139;-47
2021/08/09 11:50:22;;;;;;;;;;;25.70;47.40;;;;;;5020571;28;84132;-47
2021/08/09 11:52:48;;;;;;;;;;;25.70;46.80;;;;;;5024484;28;82220;-46
2021/08/09 11:55:21;;;;;;;;;;;25.80;46.60;;;;;;5025591;28;84047;-49
2021/08/09 11:57:46;;;;;;;;;;;25.80;46.60;;;;;;5022691;28;84240;-47
2021/08/09 12:00:12;;;;;;;;;;;25.80;46.40;;;;;;5026037;28;82083;-47
2021/08/09 12:02:56;;;;;;;;;;;25.80;46.00;;;;;;5022288;28;83344;-46
2021/08/09 12:05:23;;;;;;;;;;;25.90;46.20;;;;;;5023281;28;82122;-46
2021/08/09 12:07:56;;;;;;;;;;;25.90;46.50;;;;;;5023904;28;83517;-46
2021/08/09 12:10:27;;;;;;;;;;;25.90;46.40;;;;;;5023408;28;85849;-47
2021/08/09 12:12:53;;;;;;;;;;;25.90;46.30;;;;;;5025302;28;82889;-46
2021/08/09 12:15:19;;;;;;;;;;;25.90;46.30;;;;;;5024911;28;83060;-46
2021/08/09 12:18:01;;;;;;;;;;;26.00;46.10;;;;;;5024571;28;84528;-47
2021/08/09 12:20:26;;;;;;;;;;;26.00;46.00;;;;;;5022160;28;82115;-47
2021/08/09 12:22:53;;;;;;;;;;;26.10;46.00;;;;;;5024036;28;82654;-47
2021/08/09 12:25:22;;;;;;;;;;;26.10;46.00;;;;;;5021313;28;82839;-48
2021/08/09 12:27:57;;;;;;;;;;;26.10;45.90;;;;;;5023750;28;84215;-47
2021/08/09 12:30:23;;;;;;;;;;;26.10;45.70;;;;;;5022611;28;82492;-48
2021/08/09 12:32:59;;;;;;;;;;;26.10;45.40;;;;;;5022444;28;81454;-46
2021/08/09 12:35:32;;;;;;;;;;;26.20;45.60;;;;;;5021595;28;82998;-47
2021/08/09 12:37:57;;;;;;;;;;;26.20;45.50;;;;;;5021479;28;85008;-47
2021/08/09 12:40:23;;;;;;;;;;;26.20;45.40;;;;;;5024494;28;83133;-47
2021/08/09 12:43:03;;;;;;;;;;;26.20;45.80;;;;;;5024518;28;82940;-47
2021/08/09 12:45:29;;;;;;;;;;;26.30;45.40;;;;;;5027118;28;83172;-47
2021/08/09 12:47:54;;;;;;;;;;;26.30;45.40;;;;;;5023311;28;82421;-48
2021/08/09 12:50:20;;;;;;;;;;;26.30;45.50;;;;;;5022548;28;82782;-47
2021/08/09 12:52:45;;;;;;;;;;;26.30;45.10;;;;;;5021846;28;82091;-46
2021/08/09 12:55:11;;;;;;;;;;;26.40;45.20;;;;;;5021207;28;82075;-47
2021/08/09 12:57:37;;;;;;;;;;;26.40;45.40;;;;;;5020733;28;82781;-46
2021/08/09 13:00:03;;;;;;;;;;;26.40;45.30;;;;;;5020195;28;82103;-46
2021/08/09 13:02:29;;;;;;;;;;;26.40;45.20;;;;;;5023781;28;83574;-47
2021/08/09 13:04:54;;;;;;;;;;;26.50;45.30;;;;;;5023055;28;85139;-47
2021/08/09 13:07:20;;;;;;;;;;;26.50;44.90;;;;;;5027507;28;82118;-48
2021/08/09 13:09:45;;;;;;;;;;;26.50;44.70;;;;;;5024139;28;83132;-46
2021/08/09 13:12:11;;;;;;;;;;;26.60;45.00;;;;;;5023430;28;82168;-47
2021/08/09 13:14:36;;;;;;;;;;;26.60;45.00;;;;;;5022816;28;82932;-47
2021/08/09 13:17:03;;;;;;;;;;;26.60;44.70;;;;;;5020841;28;82802;-46
2021/08/09 13:19:29;;;;;;;;;;;26.60;45.00;;;;;;5020890;28;82129;-47
2021/08/09 13:21:54;;;;;;;;;;;26.60;45.20;;;;;;5021972;28;82605;-48
2021/08/09 13:24:20;;;;;;;;;;;26.70;45.00;;;;;;5020679;28;82627;-46
2021/08/09 13:26:46;;;;;;;;;;;26.70;44.70;;;;;;5023984;28;82267;-46
2021/08/09 13:29:11;;;;;;;;;;;26.70;44.80;;;;;;5019612;28;85722;-49
2021/08/09 13:31:37;;;;;;;;;;;26.80;44.90;;;;;;5021555;28;82138;-46
2021/08/09 13:34:03;;;;;;;;;;;26.80;44.90;;;;;;5021972;28;83953;-47
2021/08/09 13:36:28;;;;;;;;;;;26.80;45.00;;;;;;5022252;28;82101;-47
2021/08/09 13:38:54;;;;;;;;;;;26.90;44.60;;;;;;5023321;28;82137;-47
2021/08/09 13:41:19;;;;;;;;;;;26.90;44.60;;;;;;5023504;28;83658;-47
2021/08/09 13:43:45;;;;;;;;;;;26.90;44.50;;;;;;5023538;28;82131;-48
2021/08/09 13:46:10;;;;;;;;;;;26.90;44.70;;;;;;5024068;28;81495;-46
2021/08/09 13:48:37;;;;;;;;;;;26.90;44.80;;;;;;5025384;28;82340;-47
2021/08/09 13:51:04;;;;;;;;;;;27.00;44.80;;;;;;5021109;28;82165;-46
2021/08/09 13:53:29;;;;;;;;;;;27.00;44.70;;;;;;5018713;28;84503;-46
2021/08/09 13:55:55;;;;;;;;;;;27.10;44.80;;;;;;5019698;28;83725;-47
2021/08/09 13:58:20;;;;;;;;;;;27.10;44.30;;;;;;5023152;28;83271;-47
2021/08/09 14:00:46;;;;;;;;;;;27.20;44.00;;;;;;5024271;28;82494;-48
2021/08/09 14:03:11;;;;;;;;;;;27.20;44.00;;;;;;5020357;28;83020;-48
2021/08/09 14:05:39;;;;;;;;;;;27.30;43.70;;;;;;5023205;28;82241;-47
2021/08/09 14:08:04;;;;;;;;;;;27.30;44.20;;;;;;5022256;28;82811;-49
2021/08/09 14:10:30;;;;;;;;;;;27.30;43.60;;;;;;5025333;28;83413;-48
2021/08/09 14:12:56;;;;;;;;;;;27.30;43.10;;;;;;5021946;28;82053;-46
2021/08/09 14:15:21;;;;;;;;;;;27.40;43.60;;;;;;5021024;28;85104;-46